createdAt,value
2016-09-08T00:00:58.880Z,14.77
2016-09-08T00:02:00.425Z,14.81
2016-09-08T00:02:59.327Z,14.84
2016-09-08T00:03:59.037Z,14.85
2016-09-08T00:04:59.006Z,14.88
2016-09-08T00:05:59.234Z,14.86
2016-09-08T00:06:59.025Z,14.89
2016-09-08T00:07:58.316Z,14.84
2016-09-08T00:08:58.666Z,14.84
2016-09-08T00:09:59.905Z,14.84
2016-09-08T00:10:59.827Z,14.92
2016-09-08T00:12:01.490Z,14.92
2016-09-08T00:12:58.846Z,14.81
2016-09-08T00:13:58.614Z,14.62
2016-09-08T00:15:00.627Z,14.58
2016-09-08T00:16:00.097Z,14.22
2016-09-08T00:16:59.879Z,14.12
2016-09-08T00:17:59.311Z,14.11
2016-09-08T00:18:59.761Z,14.44
2016-09-08T00:19:59.375Z,14.33
2016-09-08T00:20:59.601Z,14.5
2016-09-08T00:21:58.120Z,14.55
2016-09-08T00:22:59.204Z,14.55
2016-09-08T00:24:00.246Z,14.63
2016-09-08T00:24:59.249Z,14.63
2016-09-08T00:25:58.907Z,14.63
2016-09-08T00:26:59.801Z,14.58
2016-09-08T00:27:59.423Z,14.48
2016-09-08T00:28:59.440Z,14.48
2016-09-08T00:30:01.564Z,14.36
2016-09-08T00:30:59.567Z,14.5
2016-09-08T00:31:58.774Z,14.43
2016-09-08T00:32:59.716Z,14.37
2016-09-08T00:33:59.807Z,14.3
2016-09-08T00:34:59.319Z,14.45
2016-09-08T00:36:01.430Z,14.36
2016-09-08T00:37:01.722Z,14.4
2016-09-08T00:38:01.095Z,14.12
2016-09-08T00:38:59.883Z,14.05
2016-09-08T00:39:59.559Z,14.03
2016-09-08T00:41:00.049Z,14.04
2016-09-08T00:41:59.359Z,14.12
2016-09-08T00:43:00.270Z,14.23
2016-09-08T00:44:00.554Z,14.11
2016-09-08T00:44:59.738Z,14.17
2016-09-08T00:46:00.307Z,14.26
2016-09-08T00:47:00.067Z,14.33
2016-09-08T00:48:00.509Z,14.33
2016-09-08T00:49:00.491Z,14.44
2016-09-08T00:50:01.516Z,14.47
2016-09-08T00:50:59.757Z,14.53
2016-09-08T00:52:02.599Z,14.45
2016-09-08T00:53:00.273Z,14.29
2016-09-08T00:54:00.675Z,14.32
2016-09-08T00:55:01.826Z,14.22
2016-09-08T00:56:00.851Z,14.18
2016-09-08T00:56:59.542Z,14.07
2016-09-08T00:58:01.807Z,14.03
2016-09-08T00:59:01.302Z,13.97
2016-09-08T01:00:00.165Z,13.99
2016-09-08T01:01:00.034Z,13.9
2016-09-08T01:02:00.595Z,13.9
2016-09-08T01:03:01.026Z,13.92
2016-09-08T01:04:00.199Z,14
2016-09-08T01:04:59.904Z,13.93
2016-09-08T01:06:00.442Z,13.93
2016-09-08T01:07:01.003Z,14.11
2016-09-08T01:08:00.356Z,14.15
2016-09-08T01:09:00.908Z,14.15
2016-09-08T01:10:00.527Z,14.32
2016-09-08T01:11:00.269Z,14.29
2016-09-08T01:11:59.371Z,14.2
2016-09-08T01:13:00.912Z,14.2
2016-09-08T01:13:59.950Z,14.1
2016-09-08T01:14:59.424Z,14.26
2016-09-08T01:16:01.079Z,14.2
2016-09-08T01:17:01.739Z,14.25
2016-09-08T01:17:59.826Z,14.15
2016-09-08T01:19:00.963Z,14.18
2016-09-08T01:20:00.819Z,14
2016-09-08T01:21:00.411Z,13.79
2016-09-08T01:22:01.322Z,13.77
2016-09-08T01:23:00.911Z,13.68
2016-09-08T01:24:01.064Z,13.67
2016-09-08T01:25:01.158Z,13.62
2016-09-08T01:26:01.334Z,13.78
2016-09-08T01:27:00.164Z,13.95
2016-09-08T01:28:02.557Z,13.9
2016-09-08T01:29:03.912Z,13.92
2016-09-08T01:30:02.987Z,13.97
2016-09-08T01:31:01.762Z,13.99
2016-09-08T01:32:00.859Z,14.1
2016-09-08T01:33:01.465Z,14.1
2016-09-08T01:34:02.978Z,14
2016-09-08T01:35:01.806Z,13.92
2016-09-08T01:36:02.284Z,13.72
2016-09-08T01:37:01.658Z,13.79
2016-09-08T01:38:01.133Z,13.85
2016-09-08T01:39:00.852Z,13.89
2016-09-08T01:40:01.671Z,13.75
2016-09-08T01:41:01.812Z,13.74
2016-09-08T01:42:00.628Z,13.86
2016-09-08T01:43:02.519Z,13.86
2016-09-08T01:44:04.163Z,13.95
2016-09-08T01:45:02.246Z,13.86
2016-09-08T01:46:00.549Z,13.74
2016-09-08T01:47:00.446Z,13.9
2016-09-08T01:48:00.349Z,13.86
2016-09-08T01:49:00.972Z,13.77
2016-09-08T01:50:01.813Z,13.92
2016-09-08T01:51:01.933Z,13.95
2016-09-08T01:52:02.602Z,14
2016-09-08T01:53:01.500Z,14
2016-09-08T01:54:03.188Z,14
2016-09-08T01:55:00.870Z,13.9
2016-09-08T01:56:01.485Z,13.97
2016-09-08T01:57:00.772Z,13.95
2016-09-08T01:58:01.862Z,13.99
2016-09-08T01:59:01.602Z,13.97
2016-09-08T02:00:00.954Z,13.96
2016-09-08T02:01:02.846Z,13.81
2016-09-08T02:02:02.444Z,13.85
2016-09-08T02:03:02.920Z,13.9
2016-09-08T02:04:02.521Z,13.97
2016-09-08T02:05:02.664Z,13.99
2016-09-08T02:06:02.067Z,13.89
2016-09-08T02:07:03.300Z,13.92
2016-09-08T02:08:03.379Z,13.93
2016-09-08T02:09:01.268Z,13.71
2016-09-08T02:10:01.033Z,13.67
2016-09-08T02:11:01.946Z,13.7
2016-09-08T02:12:02.327Z,13.71
2016-09-08T02:13:01.457Z,13.81
2016-09-08T02:14:01.439Z,13.78
2016-09-08T02:15:02.764Z,13.89
2016-09-08T02:16:02.261Z,13.92
2016-09-08T02:17:02.043Z,13.81
2016-09-08T02:18:02.413Z,13.79
2016-09-08T02:19:01.930Z,13.92
2016-09-08T02:20:01.742Z,13.9
2016-09-08T02:21:03.162Z,13.7
2016-09-08T02:22:02.295Z,13.71
2016-09-08T02:23:02.708Z,13.75
2016-09-08T02:24:02.886Z,13.74
2016-09-08T02:25:01.625Z,13.87
2016-09-08T02:26:01.723Z,13.92
2016-09-08T02:27:03.372Z,13.93
2016-09-08T02:28:04.262Z,13.9
2016-09-08T02:29:02.153Z,13.9
2016-09-08T02:30:03.286Z,13.87
2016-09-08T02:31:02.349Z,13.75
2016-09-08T02:32:04.115Z,13.78
2016-09-08T02:33:03.143Z,13.75
2016-09-08T02:34:03.185Z,13.79
2016-09-08T02:35:02.613Z,13.79
2016-09-08T02:36:03.406Z,13.78
2016-09-08T02:37:01.587Z,13.78
2016-09-08T02:38:02.439Z,13.62
2016-09-08T02:39:02.130Z,13.75
2016-09-08T02:40:01.999Z,13.72
2016-09-08T02:41:02.711Z,13.79
2016-09-08T02:42:02.096Z,13.63
2016-09-08T02:43:02.221Z,13.72
2016-09-08T02:44:03.264Z,13.72
2016-09-08T02:45:02.526Z,13.74
2016-09-08T02:46:01.630Z,13.62
2016-09-08T02:47:02.092Z,13.71
2016-09-08T02:48:01.996Z,13.68
2016-09-08T02:49:03.404Z,13.77
2016-09-08T02:50:02.604Z,13.78
2016-09-08T02:51:02.615Z,13.77
2016-09-08T02:52:02.175Z,13.7
2016-09-08T02:53:04.261Z,13.7
2016-09-08T02:54:03.035Z,13.77
2016-09-08T02:55:02.146Z,13.74
2016-09-08T02:56:02.702Z,13.65
2016-09-08T02:57:03.562Z,13.63
2016-09-08T02:58:03.101Z,13.71
2016-09-08T02:59:03.564Z,13.67
2016-09-08T03:00:03.488Z,13.72
2016-09-08T03:01:03.056Z,13.72
2016-09-08T03:02:03.285Z,13.78
2016-09-08T03:03:04.514Z,13.71
2016-09-08T03:04:03.376Z,13.71
2016-09-08T03:05:04.401Z,13.68
2016-09-08T03:06:03.819Z,13.54
2016-09-08T03:07:03.765Z,13.54
2016-09-08T03:08:02.553Z,13.59
2016-09-08T03:09:02.225Z,13.47
2016-09-08T03:10:03.410Z,13.5
2016-09-08T03:11:02.760Z,13.5
2016-09-08T03:12:04.252Z,13.59
2016-09-08T03:13:04.228Z,13.56
2016-09-08T03:14:02.699Z,13.65
2016-09-08T03:15:04.035Z,13.63
2016-09-08T03:16:02.903Z,13.74
2016-09-08T03:17:03.127Z,13.68
2016-09-08T03:18:02.919Z,13.6
2016-09-08T03:19:03.202Z,13.56
2016-09-08T03:20:03.810Z,13.57
2016-09-08T03:21:04.315Z,13.62
2016-09-08T03:22:03.033Z,13.68
2016-09-08T03:23:02.603Z,13.62
2016-09-08T03:24:03.362Z,13.62
2016-09-08T03:25:04.746Z,13.52
2016-09-08T03:26:05.736Z,13.22
2016-09-08T03:27:04.424Z,13.11
2016-09-08T03:28:03.436Z,12.8
2016-09-08T03:29:03.953Z,12.83
2016-09-08T03:30:04.364Z,12.85
2016-09-08T03:31:02.973Z,12.79
2016-09-08T03:32:03.378Z,12.83
2016-09-08T03:33:04.806Z,13
2016-09-08T03:34:03.521Z,13.15
2016-09-08T03:35:03.200Z,13.27
2016-09-08T03:36:05.235Z,13.23
2016-09-08T03:37:04.186Z,13.23
2016-09-08T03:38:03.812Z,13.33
2016-09-08T03:39:03.923Z,13.35
2016-09-08T03:40:03.055Z,13.27
2016-09-08T03:41:03.435Z,13.33
2016-09-08T03:42:03.084Z,13.3
2016-09-08T03:43:02.898Z,13.25
2016-09-08T03:44:04.390Z,13.28
2016-09-08T03:45:03.759Z,13.27
2016-09-08T03:46:04.278Z,13.27
2016-09-08T03:47:06.564Z,13.27
2016-09-08T03:48:03.011Z,13.39
2016-09-08T03:49:03.263Z,13.18
2016-09-08T03:50:03.023Z,13.08
2016-09-08T03:51:04.194Z,13.08
2016-09-08T03:52:03.135Z,13.09
2016-09-08T03:53:05.219Z,13.05
2016-09-08T03:54:03.323Z,13.13
2016-09-08T03:55:04.852Z,13.04
2016-09-08T03:56:04.099Z,13.08
2016-09-08T03:57:03.919Z,13.18
2016-09-08T03:58:04.094Z,13.03
2016-09-08T03:59:03.479Z,13.03
2016-09-08T04:00:04.197Z,12.97
2016-09-08T04:01:04.408Z,12.93
2016-09-08T04:02:04.139Z,12.91
2016-09-08T04:03:04.210Z,13
2016-09-08T04:04:05.093Z,12.97
2016-09-08T04:05:04.102Z,12.91
2016-09-08T04:06:04.432Z,12.82
2016-09-08T04:07:03.420Z,12.91
2016-09-08T04:08:03.968Z,12.86
2016-09-08T04:09:04.528Z,12.97
2016-09-08T04:10:04.300Z,12.91
2016-09-08T04:11:05.888Z,12.98
2016-09-08T04:12:06.742Z,12.93
2016-09-08T04:13:04.547Z,12.97
2016-09-08T04:14:05.345Z,12.85
2016-09-08T04:15:04.531Z,12.95
2016-09-08T04:16:02.496Z,12.93
2016-09-08T04:17:03.753Z,12.86
2016-09-08T04:18:04.640Z,12.78
2016-09-08T04:19:05.324Z,12.82
2016-09-08T04:20:05.833Z,12.91
2016-09-08T04:21:04.663Z,12.8
2016-09-08T04:22:04.023Z,12.91
2016-09-08T04:23:05.423Z,12.87
2016-09-08T04:24:05.567Z,12.9
2016-09-08T04:25:06.378Z,12.95
2016-09-08T04:26:05.045Z,12.9
2016-09-08T04:27:05.181Z,12.93
2016-09-08T04:28:03.588Z,12.85
2016-09-08T04:29:05.466Z,12.78
2016-09-08T04:30:05.151Z,12.91
2016-09-08T04:31:05.241Z,12.87
2016-09-08T04:32:05.430Z,12.7
2016-09-08T04:33:04.785Z,12.7
2016-09-08T04:34:05.465Z,12.67
2016-09-08T04:35:06.169Z,12.72
2016-09-08T04:36:04.640Z,12.67
2016-09-08T04:37:04.702Z,12.76
2016-09-08T04:38:05.499Z,12.75
2016-09-08T04:39:05.496Z,12.64
2016-09-08T04:40:04.262Z,12.62
2016-09-08T04:41:06.045Z,12.72
2016-09-08T04:42:05.205Z,12.86
2016-09-08T04:43:04.604Z,12.85
2016-09-08T04:44:04.481Z,12.98
2016-09-08T04:45:05.461Z,12.91
2016-09-08T04:46:05.926Z,12.87
2016-09-08T04:47:04.823Z,12.85
2016-09-08T04:48:04.394Z,13
2016-09-08T04:49:04.551Z,12.93
2016-09-08T04:50:04.586Z,12.93
2016-09-08T04:51:06.375Z,12.95
2016-09-08T04:52:04.809Z,13.05
2016-09-08T04:53:05.476Z,13.12
2016-09-08T04:54:06.885Z,13.08
2016-09-08T04:55:05.684Z,13.09
2016-09-08T04:56:06.933Z,13.08
2016-09-08T04:57:05.243Z,13.09
2016-09-08T04:58:04.666Z,12.94
2016-09-08T04:59:04.809Z,12.93
2016-09-08T05:00:05.566Z,12.98
2016-09-08T05:01:05.128Z,13.08
2016-09-08T05:02:05.382Z,12.97
2016-09-08T05:03:06.829Z,12.94
2016-09-08T05:04:05.830Z,13.09
2016-09-08T05:05:05.859Z,12.91
2016-09-08T05:06:05.777Z,12.82
2016-09-08T05:07:04.626Z,12.87
2016-09-08T05:08:04.932Z,12.8
2016-09-08T05:09:05.173Z,12.87
2016-09-08T05:10:05.182Z,12.85
2016-09-08T05:11:06.732Z,12.9
2016-09-08T05:12:05.310Z,13.05
2016-09-08T05:13:06.176Z,13.04
2016-09-08T05:14:04.763Z,12.9
2016-09-08T05:15:05.007Z,12.9
2016-09-08T05:16:06.824Z,13
2016-09-08T05:17:07.041Z,13.12
2016-09-08T05:18:06.314Z,13.11
2016-09-08T05:19:05.878Z,13.16
2016-09-08T05:20:05.892Z,13.2
2016-09-08T05:21:05.037Z,13.25
2016-09-08T05:22:05.759Z,13.22
2016-09-08T05:23:06.015Z,13.25
2016-09-08T05:24:05.710Z,13.22
2016-09-08T05:25:05.212Z,13.2
2016-09-08T05:26:07.257Z,13.2
2016-09-08T05:27:05.401Z,13.22
2016-09-08T05:28:05.287Z,13.19
2016-09-08T05:29:06.602Z,13.28
2016-09-08T05:30:07.494Z,13.37
2016-09-08T05:31:05.366Z,13.33
2016-09-08T05:32:06.604Z,13.35
2016-09-08T05:33:05.707Z,13.42
2016-09-08T05:34:04.997Z,13.5
2016-09-08T05:35:06.588Z,13.47
2016-09-08T05:36:05.652Z,13.41
2016-09-08T05:37:06.080Z,13.44
2016-09-08T05:38:05.621Z,13.42
2016-09-08T05:39:06.423Z,13.41
2016-09-08T05:40:05.887Z,13.39
2016-09-08T05:41:07.469Z,13.33
2016-09-08T05:42:06.187Z,13.33
2016-09-08T05:43:05.638Z,13.47
2016-09-08T05:44:06.209Z,13.52
2016-09-08T05:45:06.821Z,13.54
2016-09-08T05:46:05.653Z,13.57
2016-09-08T05:47:06.570Z,13.63
2016-09-08T05:48:07.473Z,13.59
2016-09-08T05:49:07.051Z,13.63
2016-09-08T05:50:07.037Z,13.74
2016-09-08T05:51:07.628Z,13.67
2016-09-08T05:52:06.091Z,13.68
2016-09-08T05:53:06.665Z,13.7
2016-09-08T05:54:07.222Z,13.72
2016-09-08T05:55:07.247Z,13.81
2016-09-08T05:56:06.039Z,13.75
2016-09-08T05:57:07.708Z,13.78
2016-09-08T05:58:06.361Z,13.78
2016-09-08T05:59:06.407Z,13.85
2016-09-08T06:00:06.563Z,13.85
2016-09-08T06:01:06.493Z,13.86
2016-09-08T06:02:06.465Z,13.89
2016-09-08T06:03:07.184Z,13.89
2016-09-08T06:04:06.429Z,13.89
2016-09-08T06:05:06.402Z,13.93
2016-09-08T06:06:07.720Z,13.95
2016-09-08T06:07:05.653Z,14.12
2016-09-08T06:08:07.128Z,14.07
2016-09-08T06:09:06.948Z,14.14
2016-09-08T06:10:07.367Z,14.23
2016-09-08T06:11:06.954Z,14.32
2016-09-08T06:12:07.673Z,14.45
2016-09-08T06:13:06.208Z,14.47
2016-09-08T06:14:07.701Z,14.58
2016-09-08T06:15:06.728Z,14.63
2016-09-08T06:16:07.476Z,14.66
2016-09-08T06:17:06.896Z,14.79
2016-09-08T06:18:06.304Z,14.72
2016-09-08T06:19:07.247Z,14.73
2016-09-08T06:20:07.519Z,14.77
2016-09-08T06:21:07.342Z,14.85
2016-09-08T06:22:07.778Z,14.88
2016-09-08T06:23:09.562Z,14.85
2016-09-08T06:24:08.077Z,14.85
2016-09-08T06:25:08.533Z,14.91
2016-09-08T06:26:07.426Z,15
2016-09-08T06:27:07.689Z,14.96
2016-09-08T06:28:06.434Z,15.02
2016-09-08T06:29:05.928Z,15.06
2016-09-08T06:30:07.838Z,15.06
2016-09-08T06:31:07.173Z,15.15
2016-09-08T06:32:06.462Z,15.11
2016-09-08T06:33:06.296Z,15.22
2016-09-08T06:34:07.635Z,15.11
2016-09-08T06:35:08.265Z,15.15
2016-09-08T06:36:07.283Z,15.18
2016-09-08T06:37:08.430Z,15.25
2016-09-08T06:38:07.598Z,15.22
2016-09-08T06:39:07.230Z,15.24
2016-09-08T06:40:08.521Z,15.21
2016-09-08T06:41:07.195Z,15.22
2016-09-08T06:42:08.207Z,15.35
2016-09-08T06:43:07.554Z,15.35
2016-09-08T06:44:08.067Z,15.42
2016-09-08T06:45:07.544Z,15.52
2016-09-08T06:46:07.474Z,15.43
2016-09-08T06:47:08.199Z,15.43
2016-09-08T06:48:08.422Z,15.44
2016-09-08T06:49:07.553Z,15.52
2016-09-08T06:50:08.429Z,15.58
2016-09-08T06:51:07.138Z,15.75
2016-09-08T06:52:08.186Z,15.92
2016-09-08T06:53:08.032Z,16.1
2016-09-08T06:54:07.431Z,16.13
2016-09-08T06:55:07.341Z,16.29
2016-09-08T06:56:08.005Z,16.21
2016-09-08T06:57:08.619Z,16.32
2016-09-08T06:58:07.639Z,16.41
2016-09-08T06:59:09.124Z,16.57
2016-09-08T07:00:07.024Z,16.71
2016-09-08T07:01:08.620Z,16.74
2016-09-08T07:02:09.389Z,16.79
2016-09-08T07:03:07.038Z,16.83
2016-09-08T07:04:08.532Z,16.9
2016-09-08T07:05:07.689Z,17.02
2016-09-08T07:06:07.757Z,17.15
2016-09-08T07:07:08.365Z,17.31
2016-09-08T07:08:10.510Z,17.31
2016-09-08T07:09:09.382Z,17.29
2016-09-08T07:10:07.982Z,17.36
2016-09-08T07:11:08.963Z,17.41
2016-09-08T07:12:07.423Z,17.54
2016-09-08T07:13:08.645Z,17.52
2016-09-08T07:14:09.402Z,17.64
2016-09-08T07:15:08.021Z,17.7
2016-09-08T07:16:07.458Z,17.76
2016-09-08T07:17:09.305Z,17.74
2016-09-08T07:18:07.875Z,17.76
2016-09-08T07:19:07.736Z,17.87
2016-09-08T07:20:08.892Z,18.04
2016-09-08T07:21:08.293Z,18.22
2016-09-08T07:22:08.558Z,18.15
2016-09-08T07:23:07.273Z,18.35
2016-09-08T07:24:07.492Z,18.34
2016-09-08T07:25:07.550Z,18.59
2016-09-08T07:26:08.664Z,18.68
2016-09-08T07:27:07.960Z,18.84
2016-09-08T07:28:08.317Z,18.88
2016-09-08T07:29:08.348Z,18.86
2016-09-08T07:30:08.958Z,18.73
2016-09-08T07:31:09.163Z,18.77
2016-09-08T07:32:09.563Z,18.68
2016-09-08T07:33:10.017Z,18.98
2016-09-08T07:34:08.442Z,19.02
2016-09-08T07:35:08.463Z,19.29
2016-09-08T07:36:08.267Z,19.52
2016-09-08T07:37:07.766Z,19.4
2016-09-08T07:38:08.266Z,19.56
2016-09-08T07:39:08.776Z,19.81
2016-09-08T07:40:08.350Z,19.7
2016-09-08T07:41:08.488Z,19.73
2016-09-08T07:42:07.699Z,20.07
2016-09-08T07:43:09.912Z,19.85
2016-09-08T07:44:09.223Z,19.76
2016-09-08T07:45:08.276Z,19.91
2016-09-08T07:46:08.670Z,20.14
2016-09-08T07:47:08.470Z,19.94
2016-09-08T07:48:08.028Z,19.91
2016-09-08T07:49:08.418Z,19.73
2016-09-08T07:50:08.467Z,20.07
2016-09-08T07:51:09.542Z,20.11
2016-09-08T07:52:09.387Z,20.34
2016-09-08T07:53:08.788Z,20.11
2016-09-08T07:54:09.509Z,20.41
2016-09-08T07:55:10.710Z,20.36
2016-09-08T07:56:09.523Z,20.34
2016-09-08T07:57:08.768Z,20.52
2016-09-08T07:58:09.227Z,20.32
2016-09-08T07:59:08.519Z,20.34
2016-09-08T08:00:08.840Z,20.41
2016-09-08T08:01:10.198Z,20.6
2016-09-08T08:02:08.851Z,20.8
2016-09-08T08:03:08.484Z,21.05
2016-09-08T08:04:09.210Z,21.3
2016-09-08T08:05:09.796Z,21.33
2016-09-08T08:06:09.466Z,21
2016-09-08T08:07:09.421Z,21.07
2016-09-08T08:08:09.445Z,21.45
2016-09-08T08:09:09.913Z,21.46
2016-09-08T08:10:08.831Z,21.27
2016-09-08T08:11:10.485Z,21.15
2016-09-08T08:12:09.650Z,21.29
2016-09-08T08:13:08.789Z,21.58
2016-09-08T08:14:09.502Z,22.14
2016-09-08T08:15:09.510Z,22.14
2016-09-08T08:16:10.093Z,22.2
2016-09-08T08:17:11.543Z,22.28
2016-09-08T08:18:10.169Z,21.6
2016-09-08T08:19:10.517Z,22.02
2016-09-08T08:20:08.904Z,22.2
2016-09-08T08:21:10.460Z,22.45
2016-09-08T08:22:10.299Z,22.29
2016-09-08T08:23:09.986Z,22.6
2016-09-08T08:24:10.283Z,22.81
2016-09-08T08:25:09.462Z,22.72
2016-09-08T08:26:10.110Z,22.26
2016-09-08T08:27:09.954Z,22.29
2016-09-08T08:28:10.274Z,22.53
2016-09-08T08:29:09.107Z,22.29
2016-09-08T08:30:10.004Z,22.22
2016-09-08T08:31:10.805Z,22.62
2016-09-08T08:32:10.168Z,23.06
2016-09-08T08:33:09.827Z,23.36
2016-09-08T08:34:10.798Z,23.48
2016-09-08T08:35:10.721Z,23.61
2016-09-08T08:36:09.957Z,23.51
2016-09-08T08:37:09.858Z,23.65
2016-09-08T08:38:09.703Z,23.8
2016-09-08T08:39:11.085Z,23.34
2016-09-08T08:40:10.997Z,23.41
2016-09-08T08:41:10.729Z,23.62
2016-09-08T08:42:11.320Z,23.69
2016-09-08T08:43:11.314Z,23.63
2016-09-08T08:44:10.628Z,23.86
2016-09-08T08:45:09.887Z,24.16
2016-09-08T08:46:10.863Z,24.32
2016-09-08T08:47:11.131Z,24.21
2016-09-08T08:48:10.153Z,23.93
2016-09-08T08:49:10.654Z,23.15
2016-09-08T08:50:10.953Z,23.37
2016-09-08T08:51:10.816Z,23.68
2016-09-08T08:52:09.954Z,24.03
2016-09-08T08:53:10.698Z,23.98
2016-09-08T08:54:11.718Z,24.06
2016-09-08T08:55:11.645Z,24.17
2016-09-08T08:56:10.940Z,24.29
2016-09-08T08:57:09.857Z,24.17
2016-09-08T08:58:10.510Z,24.08
2016-09-08T08:59:11.329Z,24.05
2016-09-08T09:00:11.450Z,23.62
2016-09-08T09:01:10.984Z,23.54
2016-09-08T09:02:11.206Z,24.29
2016-09-08T09:03:11.202Z,24.35
2016-09-08T09:04:11.277Z,24.7
2016-09-08T09:05:10.466Z,25.14
2016-09-08T09:06:10.676Z,25.06
2016-09-08T09:07:11.118Z,24.91
2016-09-08T09:08:11.254Z,24.1
2016-09-08T09:09:09.948Z,24.23
2016-09-08T09:10:11.170Z,24.57
2016-09-08T09:11:11.648Z,24.35
2016-09-08T09:12:10.575Z,24.35
2016-09-08T09:13:12.494Z,24.53
2016-09-08T09:14:11.611Z,24.53
2016-09-08T09:15:11.199Z,24.33
2016-09-08T09:16:11.252Z,24.18
2016-09-08T09:17:11.014Z,24.61
2016-09-08T09:18:11.269Z,24.63
2016-09-08T09:19:11.868Z,24.98
2016-09-08T09:20:10.944Z,25.4
2016-09-08T09:21:11.608Z,25.4
2016-09-08T09:22:11.457Z,25.65
2016-09-08T09:23:10.518Z,26
2016-09-08T09:24:12.105Z,25.87
2016-09-08T09:25:12.733Z,26
2016-09-08T09:26:11.379Z,26.19
2016-09-08T09:27:11.879Z,25.68
2016-09-08T09:28:13.120Z,25.99
2016-09-08T09:29:13.433Z,25.87
2016-09-08T09:30:11.281Z,26.18
2016-09-08T09:31:13.057Z,26.51
2016-09-08T09:32:12.537Z,26.44
2016-09-08T09:33:11.014Z,26.36
2016-09-08T09:34:11.939Z,25.51
2016-09-08T09:35:12.464Z,25.93
2016-09-08T09:36:11.312Z,26.06
2016-09-08T09:37:12.065Z,25.95
2016-09-08T09:38:12.338Z,25.85
2016-09-08T09:39:12.680Z,25.87
2016-09-08T09:40:13.329Z,25.62
2016-09-08T09:41:12.850Z,25.78
2016-09-08T09:42:12.263Z,25.93
2016-09-08T09:43:13.436Z,25.83
2016-09-08T09:44:12.072Z,26.18
2016-09-08T09:45:11.399Z,26.13
2016-09-08T09:46:13.286Z,26.31
2016-09-08T09:47:13.147Z,26.21
2016-09-08T09:48:12.086Z,25.8
2016-09-08T09:49:12.802Z,26.41
2016-09-08T09:50:11.994Z,27.03
2016-09-08T09:51:12.750Z,27.03
2016-09-08T09:52:12.369Z,27.36
2016-09-08T09:53:13.719Z,27.77
2016-09-08T09:54:12.896Z,26.88
2016-09-08T09:55:13.320Z,26.88
2016-09-08T09:56:12.698Z,26.7
2016-09-08T09:57:11.733Z,27
2016-09-08T09:58:11.930Z,27.58
2016-09-08T09:59:13.910Z,27.49
2016-09-08T10:00:15.023Z,27.54
2016-09-08T10:01:13.500Z,27.44
2016-09-08T10:02:14.590Z,27.6
2016-09-08T10:03:13.121Z,28.12
2016-09-08T10:04:12.322Z,28.22
2016-09-08T10:05:13.404Z,28.17
2016-09-08T10:06:13.130Z,28.19
2016-09-08T10:07:14.448Z,27.55
2016-09-08T10:08:12.558Z,28.2
2016-09-08T10:09:12.847Z,28.02
2016-09-08T10:10:13.690Z,27.77
2016-09-08T10:11:13.173Z,27.9
2016-09-08T10:12:13.583Z,27.9
2016-09-08T10:13:13.452Z,27.83
2016-09-08T10:14:14.231Z,27.92
2016-09-08T10:15:12.641Z,28
2016-09-08T10:16:14.268Z,28.66
2016-09-08T10:17:13.843Z,28.82
2016-09-08T10:18:12.935Z,28.56
2016-09-08T10:19:13.255Z,28.81
2016-09-08T10:20:12.720Z,28.08
2016-09-08T10:21:13.285Z,27.77
2016-09-08T10:22:13.892Z,27.75
2016-09-08T10:23:13.837Z,27.67
2016-09-08T10:24:13.815Z,28.2
2016-09-08T10:25:13.099Z,27.89
2016-09-08T10:26:14.371Z,28.59
2016-09-08T10:27:13.159Z,28.25
2016-09-08T10:28:13.410Z,28.79
2016-09-08T10:29:16.455Z,29.31
2016-09-08T10:30:13.980Z,29.01
2016-09-08T10:31:13.394Z,29.13
2016-09-08T10:32:12.952Z,28.49
2016-09-08T10:33:13.291Z,29.13
2016-09-08T10:34:13.937Z,28.89
2016-09-08T10:35:13.686Z,29.19
2016-09-08T10:36:14.289Z,29.51
2016-09-08T10:37:14.120Z,29.53
2016-09-08T10:38:12.912Z,29.05
2016-09-08T10:39:14.619Z,29.41
2016-09-08T10:40:14.106Z,29.41
2016-09-08T10:41:13.793Z,29.35
2016-09-08T10:42:14.510Z,29.72
2016-09-08T10:43:15.509Z,29.14
2016-09-08T10:44:15.105Z,28.74
2016-09-08T10:45:15.598Z,29.34
2016-09-08T10:46:13.855Z,28.82
2016-09-08T10:47:14.770Z,29.56
2016-09-08T10:48:15.717Z,29.02
2016-09-08T10:49:14.995Z,28.44
2016-09-08T10:50:14.452Z,29.19
2016-09-08T10:51:14.633Z,28.67
2016-09-08T10:52:14.715Z,27.68
2016-09-08T10:53:14.543Z,28.38
2016-09-08T10:54:15.080Z,28.86
2016-09-08T10:55:15.618Z,28.66
2016-09-08T10:56:15.911Z,28.98
2016-09-08T10:57:14.731Z,29.32
2016-09-08T10:58:15.996Z,29.12
2016-09-08T10:59:14.640Z,29.72
2016-09-08T11:00:14.736Z,30.15
2016-09-08T11:01:14.954Z,29.26
2016-09-08T11:02:15.097Z,28.91
2016-09-08T11:03:15.042Z,29.22
2016-09-08T11:04:15.668Z,29.17
2016-09-08T11:05:15.169Z,28.51
2016-09-08T11:06:14.561Z,28.47
2016-09-08T11:07:15.343Z,28.37
2016-09-08T11:08:14.833Z,28.49
2016-09-08T11:09:14.695Z,28.7
2016-09-08T11:10:15.170Z,28.6
2016-09-08T11:11:15.018Z,28.85
2016-09-08T11:12:16.810Z,29.86
2016-09-08T11:13:14.608Z,30.46
2016-09-08T11:14:16.899Z,30.39
2016-09-08T11:15:15.549Z,29.82
2016-09-08T11:16:14.804Z,29.94
2016-09-08T11:17:17.269Z,30.05
2016-09-08T11:18:15.426Z,29.76
2016-09-08T11:19:15.462Z,30.05
2016-09-08T11:20:16.457Z,30.51
2016-09-08T11:21:15.052Z,30.72
2016-09-08T11:22:15.618Z,30.59
2016-09-08T11:23:15.362Z,30.5
2016-09-08T11:24:15.596Z,30.35
2016-09-08T11:25:16.749Z,30.54
2016-09-08T11:26:15.417Z,30.02
2016-09-08T11:27:16.955Z,30.08
2016-09-08T11:28:15.505Z,30.43
2016-09-08T11:29:15.645Z,31.06
2016-09-08T11:30:16.259Z,30.4
2016-09-08T11:31:15.576Z,30.47
2016-09-08T11:32:16.719Z,30.4
2016-09-08T11:33:15.463Z,30.54
2016-09-08T11:34:15.008Z,31.03
2016-09-08T11:35:17.067Z,31.17
2016-09-08T11:36:16.163Z,30.75
2016-09-08T11:37:16.097Z,30.57
2016-09-08T11:38:15.279Z,30.61
2016-09-08T11:39:15.673Z,30.54
2016-09-08T11:40:16.764Z,30.51
2016-09-08T11:41:17.231Z,30.7
2016-09-08T11:42:18.114Z,31.31
2016-09-08T11:43:17.151Z,30.99
2016-09-08T11:44:17.018Z,31.02
2016-09-08T11:45:17.483Z,30.37
2016-09-08T11:46:17.787Z,30.5
2016-09-08T11:47:17.231Z,30.06
2016-09-08T11:48:17.515Z,30.48
2016-09-08T11:49:16.836Z,30.34
2016-09-08T11:50:17.493Z,30.69
2016-09-08T11:51:17.433Z,30.61
2016-09-08T11:52:17.392Z,31.12
2016-09-08T11:53:16.958Z,31.31
2016-09-08T11:54:17.653Z,31.24
2016-09-08T11:55:17.657Z,31.39
2016-09-08T11:56:16.968Z,31.29
2016-09-08T11:57:17.940Z,31.31
2016-09-08T11:58:17.044Z,31.92
2016-09-08T11:59:17.653Z,31.47
2016-09-08T12:00:17.016Z,31.84
2016-09-08T12:01:17.589Z,31.81
2016-09-08T12:02:18.045Z,31.4
2016-09-08T12:03:18.118Z,31.28
2016-09-08T12:04:16.971Z,30.97
2016-09-08T12:05:17.411Z,30.97
2016-09-08T12:06:17.074Z,30.88
2016-09-08T12:07:16.686Z,31.18
2016-09-08T12:08:17.473Z,31.2
2016-09-08T12:09:17.647Z,31.49
2016-09-08T12:10:19.435Z,31.36
2016-09-08T12:11:17.858Z,31.14
2016-09-08T12:12:17.495Z,31.94
2016-09-08T12:13:18.298Z,32.11
2016-09-08T12:14:18.393Z,32.22
2016-09-08T12:15:18.455Z,31.55
2016-09-08T12:16:17.475Z,31.89
2016-09-08T12:17:18.937Z,31.25
2016-09-08T12:18:17.754Z,31.36
2016-09-08T12:19:20.703Z,31.33
2016-09-08T12:20:18.928Z,31.47
2016-09-08T12:21:18.619Z,31.85
2016-09-08T12:22:18.886Z,32.29
2016-09-08T12:23:17.713Z,32
2016-09-08T12:24:17.970Z,31.87
2016-09-08T12:25:17.869Z,31.66
2016-09-08T12:26:18.106Z,31.2
2016-09-08T12:27:17.638Z,31.14
2016-09-08T12:28:18.345Z,31.06
2016-09-08T12:29:18.872Z,31.36
2016-09-08T12:30:18.882Z,31.93
2016-09-08T12:31:18.167Z,31.59
2016-09-08T12:32:19.283Z,31.34
2016-09-08T12:33:17.995Z,31.52
2016-09-08T12:34:18.675Z,31.46
2016-09-08T12:35:18.381Z,31.55
2016-09-08T12:36:17.964Z,32.12
2016-09-08T12:37:19.582Z,32.29
2016-09-08T12:38:18.240Z,32.15
2016-09-08T12:39:18.488Z,32.01
2016-09-08T12:40:17.857Z,32.27
2016-09-08T12:41:18.787Z,32.14
2016-09-08T12:42:18.730Z,32.59
2016-09-08T12:43:19.520Z,32.51
2016-09-08T12:44:19.067Z,32.68
2016-09-08T12:45:18.816Z,32.15
2016-09-08T12:46:18.960Z,31.39
2016-09-08T12:47:18.389Z,31.93
2016-09-08T12:48:19.242Z,32.41
2016-09-08T12:49:19.203Z,32.01
2016-09-08T12:50:18.241Z,32.38
2016-09-08T12:51:20.171Z,32.63
2016-09-08T12:52:18.937Z,32.74
2016-09-08T12:53:19.074Z,33.09
2016-09-08T12:54:19.525Z,32.64
2016-09-08T12:55:19.610Z,31.49
2016-09-08T12:56:19.534Z,31.69
2016-09-08T12:57:18.832Z,32.26